Jackson, Maine
Current Conditions -  °F | °C
As of 3:53 AM on Saturday 20 Dec 2014 (Local Time) from KBGR Reporting Station
Clear Clear  
Wind Chill:   Ceiling: Unl
Heat Index: 15°   Visibility: 10mi
Dew Point: 12°   Wind: 5mph
Humidity: 88%   Direction: 340°NNW
Pressure: 30.22"   Gusts: NA
Location:  44.5719°N, 69.1432°W
Report Text: KBGR 200853Z 34004KT 10SM CLR M09/M11 A3022 RMK AO2 SLP239 I3001 T10941111 53016
Loading
Personal Weather Stations






























Interactive Weather Map New forecast layout! Learn more

10-Day Weather Forecast

Advertisements
Track Severe Weather on mobile